Noank, Connecticut
Current Conditions -  °F | °C
As of 12:56 AM on Thursday 23 Oct 2014 (Local Time) from KGON Reporting Station
Overcast Overcast  
Wind Chill: 51°   Ceiling: 3300
Heat Index: 51°   Visibility: 10mi
Dew Point: 49°   Wind: 25mph
Humidity: 92%   Direction: 20°NNE
Pressure: 29.66"   Gusts: 38mph
Location:  41.3595°N, 72.0439°W
Report Text: KGON 230456Z AUTO 02022G33KT 10SM FEW017 OVC033 11/09 A2966 RMK AO2 PK WND 03034/0437 RAB02E19 SLP044 P0000 T01060094 401440094
Loading
Personal Weather Stations






























Interactive Weather Map
Tropical Storm Tracking
New forecast layout! Learn more

10-Day Weather Forecast

Advertisements
Track Severe Weather on mobile